sensor_id;sensor_type;location;lat;lon;timestamp;P1;durP1;ratioP1;P2;durP2;ratioP2
15526;SDS011;7865;50.918;4.510;2023-04-08T00:04:57;17.47;;;8.17;;
15526;SDS011;7865;50.918;4.510;2023-04-08T00:09:59;25.00;;;7.90;;
15526;SDS011;7865;50.918;4.510;2023-04-08T00:15:01;14.83;;;7.70;;
15526;SDS011;7865;50.918;4.510;2023-04-08T00:20:04;18.97;;;9.10;;
15526;SDS011;7865;50.918;4.510;2023-04-08T00:25:06;18.10;;;9.67;;
15526;SDS011;7865;50.918;4.510;2023-04-08T00:30:10;24.03;;;8.40;;
15526;SDS011;7865;50.918;4.510;2023-04-08T00:35:12;30.70;;;8.23;;
15526;SDS011;7865;50.918;4.510;2023-04-08T00:40:14;19.60;;;9.57;;
15526;SDS011;7865;50.918;4.510;2023-04-08T00:45:16;19.37;;;8.60;;
15526;SDS011;7865;50.918;4.510;2023-04-08T00:50:18;16.73;;;8.43;;
15526;SDS011;7865;50.918;4.510;2023-04-08T00:55:21;18.53;;;8.83;;
15526;SDS011;7865;50.918;4.510;2023-04-08T01:00:23;20.23;;;9.57;;
15526;SDS011;7865;50.918;4.510;2023-04-08T01:10:52;19.37;;;8.27;;
15526;SDS011;7865;50.918;4.510;2023-04-08T01:15:57;21.83;;;8.97;;
15526;SDS011;7865;50.918;4.510;2023-04-08T01:21:01;21.90;;;8.77;;
15526;SDS011;7865;50.918;4.510;2023-04-08T01:26:04;20.87;;;9.83;;
15526;SDS011;7865;50.918;4.510;2023-04-08T01:31:07;21.23;;;10.47;;
15526;SDS011;7865;50.918;4.510;2023-04-08T01:36:09;26.63;;;10.70;;
15526;SDS011;7865;50.918;4.510;2023-04-08T01:41:11;23.33;;;9.97;;
15526;SDS011;7865;50.918;4.510;2023-04-08T01:46:13;24.40;;;10.50;;
15526;SDS011;7865;50.918;4.510;2023-04-08T01:51:16;33.60;;;12.07;;
15526;SDS011;7865;50.918;4.510;2023-04-08T01:56:19;34.17;;;11.00;;
15526;SDS011;7865;50.918;4.510;2023-04-08T02:01:24;19.13;;;11.37;;
15526;SDS011;7865;50.918;4.510;2023-04-08T02:06:28;28.77;;;11.37;;
15526;SDS011;7865;50.918;4.510;2023-04-08T02:11:32;24.37;;;11.47;;
15526;SDS011;7865;50.918;4.510;2023-04-08T02:16:46;23.20;;;11.17;;
15526;SDS011;7865;50.918;4.510;2023-04-08T02:21:54;24.87;;;11.87;;
15526;SDS011;7865;50.918;4.510;2023-04-08T02:26:59;34.30;;;12.00;;
15526;SDS011;7865;50.918;4.510;2023-04-08T02:32:02;27.27;;;12.90;;
15526;SDS011;7865;50.918;4.510;2023-04-08T02:37:06;26.40;;;12.57;;
15526;SDS011;7865;50.918;4.510;2023-04-08T02:42:09;23.13;;;12.60;;
15526;SDS011;7865;50.918;4.510;2023-04-08T02:47:12;29.33;;;12.83;;
15526;SDS011;7865;50.918;4.510;2023-04-08T02:52:14;30.97;;;13.83;;
15526;SDS011;7865;50.918;4.510;2023-04-08T02:57:17;23.97;;;13.50;;
15526;SDS011;7865;50.918;4.510;2023-04-08T03:02:19;36.33;;;15.10;;
15526;SDS011;7865;50.918;4.510;2023-04-08T03:07:21;30.17;;;14.37;;
15526;SDS011;7865;50.918;4.510;2023-04-08T03:12:23;37.03;;;15.63;;
15526;SDS011;7865;50.918;4.510;2023-04-08T03:17:28;37.43;;;16.00;;
15526;SDS011;7865;50.918;4.510;2023-04-08T03:22:30;29.00;;;15.73;;
15526;SDS011;7865;50.918;4.510;2023-04-08T03:27:32;33.33;;;16.47;;
15526;SDS011;7865;50.918;4.510;2023-04-08T03:32:34;34.23;;;15.20;;
15526;SDS011;7865;50.918;4.510;2023-04-08T03:37:36;29.43;;;16.20;;
15526;SDS011;7865;50.918;4.510;2023-04-08T03:42:38;42.53;;;16.00;;
15526;SDS011;7865;50.918;4.510;2023-04-08T03:47:40;35.33;;;17.23;;
15526;SDS011;7865;50.918;4.510;2023-04-08T03:52:43;35.07;;;16.73;;
15526;SDS011;7865;50.918;4.510;2023-04-08T03:57:44;34.90;;;18.03;;
15526;SDS011;7865;50.918;4.510;2023-04-08T04:02:46;40.47;;;17.90;;
15526;SDS011;7865;50.918;4.510;2023-04-08T04:07:49;31.50;;;16.90;;
15526;SDS011;7865;50.918;4.510;2023-04-08T04:12:51;46.17;;;18.20;;
15526;SDS011;7865;50.918;4.510;2023-04-08T04:17:56;37.23;;;18.10;;
15526;SDS011;7865;50.918;4.510;2023-04-08T04:23:00;37.33;;;17.30;;
15526;SDS011;7865;50.918;4.510;2023-04-08T04:28:02;36.13;;;18.60;;
15526;SDS011;7865;50.918;4.510;2023-04-08T04:33:04;44.83;;;19.70;;
15526;SDS011;7865;50.918;4.510;2023-04-08T04:38:06;42.77;;;17.77;;
15526;SDS011;7865;50.918;4.510;2023-04-08T04:43:12;38.70;;;18.40;;
15526;SDS011;7865;50.918;4.510;2023-04-08T04:48:14;38.50;;;18.90;;
15526;SDS011;7865;50.918;4.510;2023-04-08T04:53:17;38.87;;;19.57;;
15526;SDS011;7865;50.918;4.510;2023-04-08T04:58:19;37.70;;;18.90;;
15526;SDS011;7865;50.918;4.510;2023-04-08T05:03:21;46.27;;;19.03;;
15526;SDS011;7865;50.918;4.510;2023-04-08T05:08:23;47.60;;;19.93;;
15526;SDS011;7865;50.918;4.510;2023-04-08T05:13:28;45.40;;;19.03;;
15526;SDS011;7865;50.918;4.510;2023-04-08T05:18:30;43.37;;;18.40;;
15526;SDS011;7865;50.918;4.510;2023-04-08T05:23:35;39.93;;;19.50;;
15526;SDS011;7865;50.918;4.510;2023-04-08T05:28:37;43.10;;;19.70;;
15526;SDS011;7865;50.918;4.510;2023-04-08T05:33:40;46.20;;;20.07;;
15526;SDS011;7865;50.918;4.510;2023-04-08T05:38:42;49.27;;;20.80;;
15526;SDS011;7865;50.918;4.510;2023-04-08T05:43:44;40.83;;;19.33;;
15526;SDS011;7865;50.918;4.510;2023-04-08T05:48:46;38.00;;;20.67;;
15526;SDS011;7865;50.918;4.510;2023-04-08T05:53:48;41.43;;;21.67;;
15526;SDS011;7865;50.918;4.510;2023-04-08T05:58:50;51.43;;;20.93;;
15526;SDS011;7865;50.918;4.510;2023-04-08T06:03:53;42.50;;;20.33;;
15526;SDS011;7865;50.918;4.510;2023-04-08T06:08:57;48.27;;;21.10;;
15526;SDS011;7865;50.918;4.510;2023-04-08T06:13:59;46.33;;;20.80;;
15526;SDS011;7865;50.918;4.510;2023-04-08T06:19:01;43.03;;;20.87;;
15526;SDS011;7865;50.918;4.510;2023-04-08T06:24:03;37.70;;;19.70;;
15526;SDS011;7865;50.918;4.510;2023-04-08T06:29:04;40.80;;;20.97;;
15526;SDS011;7865;50.918;4.510;2023-04-08T06:34:07;40.47;;;21.00;;
15526;SDS011;7865;50.918;4.510;2023-04-08T06:39:09;41.30;;;21.17;;
15526;SDS011;7865;50.918;4.510;2023-04-08T06:44:11;39.57;;;21.80;;
15526;SDS011;7865;50.918;4.510;2023-04-08T06:49:13;43.03;;;22.27;;
15526;SDS011;7865;50.918;4.510;2023-04-08T06:54:15;45.93;;;22.07;;
15526;SDS011;7865;50.918;4.510;2023-04-08T06:59:17;44.67;;;22.00;;
15526;SDS011;7865;50.918;4.510;2023-04-08T07:04:19;39.97;;;19.83;;
15526;SDS011;7865;50.918;4.510;2023-04-08T07:09:21;29.30;;;17.87;;
15526;SDS011;7865;50.918;4.510;2023-04-08T07:14:23;27.53;;;16.73;;
15526;SDS011;7865;50.918;4.510;2023-04-08T07:19:26;28.37;;;17.37;;
15526;SDS011;7865;50.918;4.510;2023-04-08T07:24:28;34.13;;;18.03;;
15526;SDS011;7865;50.918;4.510;2023-04-08T07:29:30;28.23;;;16.07;;
15526;SDS011;7865;50.918;4.510;2023-04-08T07:34:36;33.00;;;18.40;;
15526;SDS011;7865;50.918;4.510;2023-04-08T07:39:38;31.50;;;18.23;;
15526;SDS011;7865;50.918;4.510;2023-04-08T07:44:40;28.67;;;19.57;;
15526;SDS011;7865;50.918;4.510;2023-04-08T07:49:44;33.53;;;19.77;;
15526;SDS011;7865;50.918;4.510;2023-04-08T07:54:47;30.17;;;17.03;;
15526;SDS011;7865;50.918;4.510;2023-04-08T07:59:49;20.73;;;13.60;;
15526;SDS011;7865;50.918;4.510;2023-04-08T08:04:51;27.97;;;17.40;;
15526;SDS011;7865;50.918;4.510;2023-04-08T08:09:53;26.80;;;15.97;;
15526;SDS011;7865;50.918;4.510;2023-04-08T08:14:56;18.23;;;14.27;;
15526;SDS011;7865;50.918;4.510;2023-04-08T08:19:59;21.67;;;14.40;;
15526;SDS011;7865;50.918;4.510;2023-04-08T08:25:02;25.47;;;15.30;;
15526;SDS011;7865;50.918;4.510;2023-04-08T08:30:05;16.50;;;11.80;;
15526;SDS011;7865;50.918;4.510;2023-04-08T08:35:08;26.80;;;14.17;;
15526;SDS011;7865;50.918;4.510;2023-04-08T08:40:10;18.70;;;11.30;;
15526;SDS011;7865;50.918;4.510;2023-04-08T08:57:24;27.17;;;16.53;;
15526;SDS011;7865;50.918;4.510;2023-04-08T09:02:28;27.47;;;17.53;;
15526;SDS011;7865;50.918;4.510;2023-04-08T09:07:36;31.60;;;19.47;;
15526;SDS011;7865;50.918;4.510;2023-04-08T09:12:52;35.43;;;20.47;;
15526;SDS011;7865;50.918;4.510;2023-04-08T09:17:55;39.00;;;20.87;;
15526;SDS011;7865;50.918;4.510;2023-04-08T09:22:59;31.83;;;20.27;;
15526;SDS011;7865;50.918;4.510;2023-04-08T09:28:02;35.93;;;21.17;;
15526;SDS011;7865;50.918;4.510;2023-04-08T09:33:04;32.83;;;21.47;;
15526;SDS011;7865;50.918;4.510;2023-04-08T09:38:08;31.90;;;19.70;;
15526;SDS011;7865;50.918;4.510;2023-04-08T09:43:10;38.33;;;22.77;;
15526;SDS011;7865;50.918;4.510;2023-04-08T09:48:26;31.40;;;20.90;;
15526;SDS011;7865;50.918;4.510;2023-04-08T09:53:33;28.73;;;18.75;;
15526;SDS011;7865;50.918;4.510;2023-04-08T09:58:38;26.98;;;18.17;;
15526;SDS011;7865;50.918;4.510;2023-04-08T10:03:45;24.83;;;17.38;;
15526;SDS011;7865;50.918;4.510;2023-04-08T10:08:51;25.33;;;17.33;;
15526;SDS011;7865;50.918;4.510;2023-04-08T10:13:54;13.52;;;10.52;;
15526;SDS011;7865;50.918;4.510;2023-04-08T10:18:56;14.35;;;10.88;;
15526;SDS011;7865;50.918;4.510;2023-04-08T10:23:59;11.35;;;9.55;;
15526;SDS011;7865;50.918;4.510;2023-04-08T10:34:29;25.23;;;16.90;;
15526;SDS011;7865;50.918;4.510;2023-04-08T10:39:31;18.38;;;14.95;;
15526;SDS011;7865;50.918;4.510;2023-04-08T10:44:33;17.55;;;13.90;;
15526;SDS011;7865;50.918;4.510;2023-04-08T10:49:35;13.07;;;9.57;;
15526;SDS011;7865;50.918;4.510;2023-04-08T10:54:38;13.93;;;9.60;;
15526;SDS011;7865;50.918;4.510;2023-04-08T10:59:48;18.70;;;11.23;;
15526;SDS011;7865;50.918;4.510;2023-04-08T11:04:52;20.40;;;15.63;;
15526;SDS011;7865;50.918;4.510;2023-04-08T11:09:54;23.03;;;16.80;;
15526;SDS011;7865;50.918;4.510;2023-04-08T11:14:57;24.77;;;15.63;;
15526;SDS011;7865;50.918;4.510;2023-04-08T11:19:59;24.33;;;16.67;;
15526;SDS011;7865;50.918;4.510;2023-04-08T11:25:06;22.48;;;15.73;;
15526;SDS011;7865;50.918;4.510;2023-04-08T11:30:10;19.25;;;14.32;;
15526;SDS011;7865;50.918;4.510;2023-04-08T11:35:15;23.40;;;14.43;;
15526;SDS011;7865;50.918;4.510;2023-04-08T11:40:20;19.92;;;15.20;;
15526;SDS011;7865;50.918;4.510;2023-04-08T11:45:23;18.02;;;13.50;;
15526;SDS011;7865;50.918;4.510;2023-04-08T11:50:25;17.05;;;12.43;;
15526;SDS011;7865;50.918;4.510;2023-04-08T11:55:28;14.23;;;10.80;;
15526;SDS011;7865;50.918;4.510;2023-04-08T12:00:31;17.40;;;10.98;;
15526;SDS011;7865;50.918;4.510;2023-04-08T12:05:33;13.45;;;10.85;;
15526;SDS011;7865;50.918;4.510;2023-04-08T12:10:36;16.65;;;12.40;;
15526;SDS011;7865;50.918;4.510;2023-04-08T12:15:38;16.02;;;11.50;;
15526;SDS011;7865;50.918;4.510;2023-04-08T12:20:40;19.83;;;13.40;;
15526;SDS011;7865;50.918;4.510;2023-04-08T12:25:42;17.17;;;12.65;;
15526;SDS011;7865;50.918;4.510;2023-04-08T12:30:44;16.73;;;12.95;;
15526;SDS011;7865;50.918;4.510;2023-04-08T12:35:47;16.35;;;11.90;;
15526;SDS011;7865;50.918;4.510;2023-04-08T12:40:49;19.48;;;12.20;;
15526;SDS011;7865;50.918;4.510;2023-04-08T12:45:52;16.80;;;12.43;;
15526;SDS011;7865;50.918;4.510;2023-04-08T12:50:54;18.30;;;13.38;;
15526;SDS011;7865;50.918;4.510;2023-04-08T12:55:56;22.15;;;13.63;;
15526;SDS011;7865;50.918;4.510;2023-04-08T13:00:58;15.82;;;12.85;;
15526;SDS011;7865;50.918;4.510;2023-04-08T13:06:00;13.57;;;11.68;;
15526;SDS011;7865;50.918;4.510;2023-04-08T13:11:02;18.52;;;12.88;;
15526;SDS011;7865;50.918;4.510;2023-04-08T13:16:04;17.98;;;13.63;;
15526;SDS011;7865;50.918;4.510;2023-04-08T13:21:07;17.65;;;13.23;;
15526;SDS011;7865;50.918;4.510;2023-04-08T13:26:10;22.75;;;14.15;;
15526;SDS011;7865;50.918;4.510;2023-04-08T13:31:12;22.30;;;13.93;;
15526;SDS011;7865;50.918;4.510;2023-04-08T13:36:14;18.67;;;15.02;;
15526;SDS011;7865;50.918;4.510;2023-04-08T13:41:16;18.40;;;13.88;;
15526;SDS011;7865;50.918;4.510;2023-04-08T13:46:18;17.17;;;13.35;;
15526;SDS011;7865;50.918;4.510;2023-04-08T13:51:20;18.70;;;13.65;;
15526;SDS011;7865;50.918;4.510;2023-04-08T13:56:22;18.30;;;14.55;;
15526;SDS011;7865;50.918;4.510;2023-04-08T14:01:24;21.90;;;15.07;;
15526;SDS011;7865;50.918;4.510;2023-04-08T14:06:26;18.58;;;14.32;;
15526;SDS011;7865;50.918;4.510;2023-04-08T14:11:28;17.42;;;14.73;;
15526;SDS011;7865;50.918;4.510;2023-04-08T14:16:31;20.10;;;14.40;;
15526;SDS011;7865;50.918;4.510;2023-04-08T14:21:33;19.98;;;15.48;;
15526;SDS011;7865;50.918;4.510;2023-04-08T14:26:35;23.80;;;16.08;;
15526;SDS011;7865;50.918;4.510;2023-04-08T14:31:38;19.60;;;15.90;;
15526;SDS011;7865;50.918;4.510;2023-04-08T14:36:39;19.20;;;14.80;;
15526;SDS011;7865;50.918;4.510;2023-04-08T14:41:41;20.23;;;15.85;;
15526;SDS011;7865;50.918;4.510;2023-04-08T14:46:43;22.05;;;17.05;;
15526;SDS011;7865;50.918;4.510;2023-04-08T14:51:45;20.70;;;16.80;;
15526;SDS011;7865;50.918;4.510;2023-04-08T14:56:47;21.48;;;16.40;;
15526;SDS011;7865;50.918;4.510;2023-04-08T15:01:49;21.30;;;16.48;;
15526;SDS011;7865;50.918;4.510;2023-04-08T15:06:51;24.40;;;17.40;;
15526;SDS011;7865;50.918;4.510;2023-04-08T15:11:53;22.55;;;17.75;;
15526;SDS011;7865;50.918;4.510;2023-04-08T15:16:56;20.65;;;16.08;;
15526;SDS011;7865;50.918;4.510;2023-04-08T15:21:58;18.10;;;14.02;;
15526;SDS011;7865;50.918;4.510;2023-04-08T15:26:59;18.67;;;14.40;;
15526;SDS011;7865;50.918;4.510;2023-04-08T15:32:01;18.20;;;13.30;;
15526;SDS011;7865;50.918;4.510;2023-04-08T15:37:03;14.35;;;11.48;;
15526;SDS011;7865;50.918;4.510;2023-04-08T15:42:05;13.32;;;10.52;;
15526;SDS011;7865;50.918;4.510;2023-04-08T15:47:07;14.25;;;10.35;;
15526;SDS011;7865;50.918;4.510;2023-04-08T15:52:10;13.60;;;10.13;;
15526;SDS011;7865;50.918;4.510;2023-04-08T15:57:12;17.90;;;11.35;;
15526;SDS011;7865;50.918;4.510;2023-04-08T16:02:16;14.27;;;10.10;;
15526;SDS011;7865;50.918;4.510;2023-04-08T16:07:18;14.10;;;10.70;;
15526;SDS011;7865;50.918;4.510;2023-04-08T16:12:20;14.18;;;11.00;;
15526;SDS011;7865;50.918;4.510;2023-04-08T16:17:22;15.57;;;11.18;;
15526;SDS011;7865;50.918;4.510;2023-04-08T16:22:25;15.60;;;11.77;;
15526;SDS011;7865;50.918;4.510;2023-04-08T16:27:28;12.63;;;10.65;;
15526;SDS011;7865;50.918;4.510;2023-04-08T16:32:29;15.50;;;10.85;;
15526;SDS011;7865;50.918;4.510;2023-04-08T16:37:32;11.30;;;9.48;;
15526;SDS011;7865;50.918;4.510;2023-04-08T16:42:34;11.90;;;10.35;;
15526;SDS011;7865;50.918;4.510;2023-04-08T16:47:36;13.48;;;10.25;;
15526;SDS011;7865;50.918;4.510;2023-04-08T16:52:40;12.30;;;10.23;;
15526;SDS011;7865;50.918;4.510;2023-04-08T16:57:44;13.38;;;10.45;;
15526;SDS011;7865;50.918;4.510;2023-04-08T17:02:46;12.00;;;10.20;;
15526;SDS011;7865;50.918;4.510;2023-04-08T17:07:48;13.02;;;9.60;;
15526;SDS011;7865;50.918;4.510;2023-04-08T17:12:50;11.82;;;9.35;;
15526;SDS011;7865;50.918;4.510;2023-04-08T17:17:52;11.68;;;9.75;;
15526;SDS011;7865;50.918;4.510;2023-04-08T17:22:54;11.90;;;10.23;;
15526;SDS011;7865;50.918;4.510;2023-04-08T17:27:56;14.73;;;11.10;;
15526;SDS011;7865;50.918;4.510;2023-04-08T17:32:58;11.90;;;10.00;;
15526;SDS011;7865;50.918;4.510;2023-04-08T17:38:00;12.93;;;9.53;;
15526;SDS011;7865;50.918;4.510;2023-04-08T17:43:03;11.30;;;9.88;;
15526;SDS011;7865;50.918;4.510;2023-04-08T17:48:05;14.30;;;10.15;;
15526;SDS011;7865;50.918;4.510;2023-04-08T17:53:09;14.70;;;11.17;;
15526;SDS011;7865;50.918;4.510;2023-04-08T17:58:12;14.37;;;10.90;;
15526;SDS011;7865;50.918;4.510;2023-04-08T18:03:13;16.80;;;11.37;;
15526;SDS011;7865;50.918;4.510;2023-04-08T18:08:16;14.93;;;12.17;;
15526;SDS011;7865;50.918;4.510;2023-04-08T18:13:18;16.33;;;12.20;;
15526;SDS011;7865;50.918;4.510;2023-04-08T18:18:21;16.47;;;12.67;;
15526;SDS011;7865;50.918;4.510;2023-04-08T18:23:22;13.90;;;11.43;;
15526;SDS011;7865;50.918;4.510;2023-04-08T18:28:24;14.00;;;12.03;;
15526;SDS011;7865;50.918;4.510;2023-04-08T18:33:27;16.43;;;12.47;;
15526;SDS011;7865;50.918;4.510;2023-04-08T18:38:29;15.43;;;12.57;;
15526;SDS011;7865;50.918;4.510;2023-04-08T18:43:31;14.60;;;12.17;;
15526;SDS011;7865;50.918;4.510;2023-04-08T18:48:33;15.13;;;11.80;;
15526;SDS011;7865;50.918;4.510;2023-04-08T18:53:36;15.57;;;12.07;;
15526;SDS011;7865;50.918;4.510;2023-04-08T18:58:39;15.83;;;12.77;;
15526;SDS011;7865;50.918;4.510;2023-04-08T19:03:41;19.20;;;14.73;;
15526;SDS011;7865;50.918;4.510;2023-04-08T19:08:46;15.97;;;12.80;;
15526;SDS011;7865;50.918;4.510;2023-04-08T19:13:49;19.80;;;14.10;;
15526;SDS011;7865;50.918;4.510;2023-04-08T19:18:51;17.10;;;13.73;;
15526;SDS011;7865;50.918;4.510;2023-04-08T19:23:56;16.90;;;13.77;;
15526;SDS011;7865;50.918;4.510;2023-04-08T19:28:58;19.07;;;14.60;;
15526;SDS011;7865;50.918;4.510;2023-04-08T19:34:01;19.73;;;15.73;;
15526;SDS011;7865;50.918;4.510;2023-04-08T19:39:03;20.07;;;14.77;;
15526;SDS011;7865;50.918;4.510;2023-04-08T19:44:06;17.90;;;14.87;;
15526;SDS011;7865;50.918;4.510;2023-04-08T19:49:08;22.53;;;15.23;;
15526;SDS011;7865;50.918;4.510;2023-04-08T19:54:10;20.30;;;16.43;;
15526;SDS011;7865;50.918;4.510;2023-04-08T19:59:12;18.53;;;14.77;;
15526;SDS011;7865;50.918;4.510;2023-04-08T20:04:14;22.33;;;17.50;;
15526;SDS011;7865;50.918;4.510;2023-04-08T20:09:16;22.87;;;17.63;;
15526;SDS011;7865;50.918;4.510;2023-04-08T20:14:18;27.10;;;19.70;;
15526;SDS011;7865;50.918;4.510;2023-04-08T20:19:21;32.43;;;21.67;;
15526;SDS011;7865;50.918;4.510;2023-04-08T20:24:22;24.60;;;19.03;;
15526;SDS011;7865;50.918;4.510;2023-04-08T20:29:24;26.73;;;19.63;;
15526;SDS011;7865;50.918;4.510;2023-04-08T20:34:27;30.37;;;19.60;;
15526;SDS011;7865;50.918;4.510;2023-04-08T20:39:29;23.43;;;18.07;;
15526;SDS011;7865;50.918;4.510;2023-04-08T20:44:32;25.83;;;20.47;;
15526;SDS011;7865;50.918;4.510;2023-04-08T20:49:34;25.87;;;19.70;;
15526;SDS011;7865;50.918;4.510;2023-04-08T20:54:38;25.30;;;19.53;;
15526;SDS011;7865;50.918;4.510;2023-04-08T20:59:43;29.50;;;22.40;;
15526;SDS011;7865;50.918;4.510;2023-04-08T21:05:22;34.30;;;24.03;;
15526;SDS011;7865;50.918;4.510;2023-04-08T21:11:23;34.97;;;22.60;;
15526;SDS011;7865;50.918;4.510;2023-04-08T21:16:24;28.63;;;22.23;;
15526;SDS011;7865;50.918;4.510;2023-04-08T21:21:27;29.40;;;20.23;;
15526;SDS011;7865;50.918;4.510;2023-04-08T21:26:29;22.67;;;18.33;;
15526;SDS011;7865;50.918;4.510;2023-04-08T21:31:31;26.47;;;20.40;;
15526;SDS011;7865;50.918;4.510;2023-04-08T21:36:33;27.23;;;20.93;;
15526;SDS011;7865;50.918;4.510;2023-04-08T21:41:35;30.20;;;21.17;;
15526;SDS011;7865;50.918;4.510;2023-04-08T21:46:37;27.93;;;22.20;;
15526;SDS011;7865;50.918;4.510;2023-04-08T21:51:39;29.27;;;22.40;;
15526;SDS011;7865;50.918;4.510;2023-04-08T21:56:41;29.37;;;22.33;;
15526;SDS011;7865;50.918;4.510;2023-04-08T22:01:43;27.37;;;20.47;;
15526;SDS011;7865;50.918;4.510;2023-04-08T22:06:45;25.90;;;20.97;;
15526;SDS011;7865;50.918;4.510;2023-04-08T22:11:50;27.00;;;20.60;;
15526;SDS011;7865;50.918;4.510;2023-04-08T22:16:52;27.03;;;20.70;;
15526;SDS011;7865;50.918;4.510;2023-04-08T22:21:54;28.13;;;22.03;;
15526;SDS011;7865;50.918;4.510;2023-04-08T22:26:55;28.73;;;22.30;;
15526;SDS011;7865;50.918;4.510;2023-04-08T22:31:58;38.40;;;25.13;;
15526;SDS011;7865;50.918;4.510;2023-04-08T22:37:00;35.33;;;24.63;;
15526;SDS011;7865;50.918;4.510;2023-04-08T22:42:01;35.97;;;24.33;;
15526;SDS011;7865;50.918;4.510;2023-04-08T22:47:03;34.47;;;23.97;;
15526;SDS011;7865;50.918;4.510;2023-04-08T22:52:05;31.40;;;22.70;;
15526;SDS011;7865;50.918;4.510;2023-04-08T22:57:07;33.30;;;24.33;;
15526;SDS011;7865;50.918;4.510;2023-04-08T23:02:09;31.87;;;23.77;;
15526;SDS011;7865;50.918;4.510;2023-04-08T23:07:11;35.27;;;24.43;;
15526;SDS011;7865;50.918;4.510;2023-04-08T23:12:13;33.03;;;24.23;;
15526;SDS011;7865;50.918;4.510;2023-04-08T23:17:16;36.73;;;25.13;;
15526;SDS011;7865;50.918;4.510;2023-04-08T23:22:18;32.23;;;22.47;;
15526;SDS011;7865;50.918;4.510;2023-04-08T23:27:19;30.93;;;22.87;;
15526;SDS011;7865;50.918;4.510;2023-04-08T23:32:21;28.73;;;20.83;;
15526;SDS011;7865;50.918;4.510;2023-04-08T23:37:24;34.37;;;21.87;;
15526;SDS011;7865;50.918;4.510;2023-04-08T23:42:26;37.90;;;25.43;;
15526;SDS011;7865;50.918;4.510;2023-04-08T23:47:28;32.27;;;23.87;;
15526;SDS011;7865;50.918;4.510;2023-04-08T23:52:31;35.07;;;25.83;;
15526;SDS011;7865;50.918;4.510;2023-04-08T23:57:33;36.63;;;24.43;;
